createdAt,value
2019-03-03T00:01:05.941Z,5.40
2019-03-03T00:07:08.168Z,5.20
2019-03-03T00:13:10.362Z,4.90
2019-03-03T00:19:12.521Z,4.70
2019-03-03T00:25:15.119Z,4.70
2019-03-03T00:31:29.976Z,4.70
2019-03-03T00:37:38.951Z,4.90
2019-03-03T00:43:52.099Z,5.00
2019-03-03T00:49:56.437Z,5.00
2019-03-03T00:56:01.695Z,5.10
2019-03-03T01:02:06.925Z,5.00
2019-03-03T01:08:28.071Z,5.00
2019-03-03T01:14:48.923Z,5.10
2019-03-03T01:20:53.038Z,5.20
2019-03-03T01:26:55.387Z,5.40
2019-03-03T01:32:57.585Z,5.40
2019-03-03T01:38:59.846Z,5.50
2019-03-03T01:45:02.089Z,5.50
2019-03-03T01:51:04.479Z,5.60
2019-03-03T01:57:06.788Z,5.70
2019-03-03T02:03:09.143Z,5.70
2019-03-03T02:09:11.433Z,5.80
2019-03-03T02:15:14.133Z,5.80
2019-03-03T02:21:16.410Z,5.70
2019-03-03T02:27:18.788Z,5.70
2019-03-03T02:33:21.365Z,5.80
2019-03-03T02:39:23.888Z,5.90
2019-03-03T02:45:26.034Z,5.90
2019-03-03T02:51:28.477Z,6.00
2019-03-03T02:57:30.617Z,6.20
2019-03-03T03:03:32.877Z,6.20
2019-03-03T03:09:38.149Z,6.20
2019-03-03T03:15:45.141Z,6.30
2019-03-03T03:22:01.469Z,6.30
2019-03-03T03:28:17.773Z,6.20
2019-03-03T03:34:24.602Z,6.10
2019-03-03T03:40:37.473Z,6.20
2019-03-03T03:46:41.526Z,6.20
2019-03-03T03:52:45.589Z,6.30
2019-03-03T03:58:49.624Z,6.30
2019-03-03T04:05:12.601Z,6.30
2019-03-03T04:11:17.740Z,6.40
2019-03-03T04:17:24.464Z,6.40
2019-03-03T04:23:31.260Z,6.50
2019-03-03T04:29:39.279Z,6.60
2019-03-03T04:35:49.313Z,6.60
2019-03-03T04:41:59.475Z,6.60
2019-03-03T04:48:06.568Z,6.60
2019-03-03T04:54:16.718Z,6.60
2019-03-03T05:00:20.816Z,6.60
2019-03-03T05:06:25.060Z,6.60
2019-03-03T05:12:29.312Z,6.60
2019-03-03T05:18:33.433Z,6.40
2019-03-03T05:24:35.573Z,6.40
2019-03-03T05:30:37.724Z,6.60
2019-03-03T05:36:39.867Z,6.70
2019-03-03T05:42:42.154Z,6.80
2019-03-03T05:48:46.426Z,6.80
2019-03-03T05:54:48.573Z,6.90
2019-03-03T06:00:50.706Z,6.80
2019-03-03T06:06:53.093Z,7.00
2019-03-03T06:12:55.320Z,7.10
2019-03-03T06:18:57.642Z,7.20
2019-03-03T06:24:59.836Z,7.30
2019-03-03T06:31:01.986Z,7.40
2019-03-03T06:37:04.334Z,7.50
2019-03-03T06:43:06.612Z,7.60
2019-03-03T06:49:08.783Z,7.70
2019-03-03T06:55:12.142Z,7.80
2019-03-03T07:01:14.491Z,7.80
2019-03-03T07:07:16.792Z,8.00
2019-03-03T07:13:18.974Z,8.20
2019-03-03T07:19:21.256Z,8.50
2019-03-03T07:25:25.535Z,8.60
2019-03-03T07:31:28.909Z,8.90
2019-03-03T07:37:33.240Z,9.20
2019-03-03T07:43:35.668Z,9.10
2019-03-03T07:49:37.916Z,9.20
2019-03-03T07:55:40.136Z,9.30
2019-03-03T08:01:42.423Z,9.50
2019-03-03T08:07:45.790Z,9.70
2019-03-03T08:13:48.058Z,9.90
2019-03-03T08:19:51.321Z,10.00
2019-03-03T08:25:53.702Z,10.50
2019-03-03T08:31:56.087Z,11.00
2019-03-03T08:37:58.598Z,12.20
2019-03-03T08:44:02.760Z,14.90
2019-03-03T08:50:13.915Z,16.70
2019-03-03T08:56:21.029Z,17.80
2019-03-03T09:02:27.296Z,18.40
2019-03-03T09:08:34.379Z,18.40
2019-03-03T09:14:47.557Z,18.50
2019-03-03T09:20:54.548Z,18.90
2019-03-03T09:26:59.637Z,19.10
2019-03-03T09:33:15.471Z,18.90
2019-03-03T09:39:19.581Z,18.70
2019-03-03T09:45:23.667Z,18.00
2019-03-03T09:51:43.060Z,17.10
2019-03-03T09:58:02.440Z,16.50
2019-03-03T10:04:06.697Z,15.80
2019-03-03T10:10:13.680Z,15.70
2019-03-03T10:16:35.780Z,15.80
2019-03-03T10:22:42.897Z,16.10
2019-03-03T10:29:02.934Z,16.10
2019-03-03T10:35:16.325Z,16.00
2019-03-03T10:41:37.286Z,16.20
2019-03-03T10:47:53.576Z,16.10
2019-03-03T10:54:14.942Z,16.30
2019-03-03T11:00:31.178Z,16.70
2019-03-03T11:06:44.586Z,16.90
2019-03-03T11:12:49.320Z,17.00
2019-03-03T11:19:05.404Z,16.90
2019-03-03T11:25:09.494Z,16.90
2019-03-03T11:31:25.833Z,17.10
2019-03-03T11:37:33.180Z,17.00
2019-03-03T11:43:43.200Z,16.90
2019-03-03T11:49:47.291Z,17.00
2019-03-03T11:55:51.396Z,17.00
2019-03-03T12:02:04.879Z,16.90
2019-03-03T12:08:09.015Z,16.80
2019-03-03T12:14:31.847Z,16.90
2019-03-03T12:20:44.760Z,16.80
2019-03-03T12:26:51.827Z,17.00
2019-03-03T12:33:02.064Z,17.00
2019-03-03T12:39:08.681Z,16.60
2019-03-03T12:45:31.125Z,16.20
2019-03-03T12:51:38.182Z,15.80
2019-03-03T12:58:01.220Z,15.50
2019-03-03T13:04:08.314Z,15.50
2019-03-03T13:10:15.202Z,15.40
2019-03-03T13:16:19.351Z,15.40
2019-03-03T13:22:29.544Z,15.60
2019-03-03T13:28:39.305Z,15.70
2019-03-03T13:34:46.410Z,16.20
2019-03-03T13:41:02.423Z,16.30
2019-03-03T13:47:04.876Z,16.30
2019-03-03T13:53:07.099Z,16.60
2019-03-03T13:59:09.450Z,16.60
2019-03-03T14:05:11.732Z,16.40
2019-03-03T14:11:14.147Z,16.40
2019-03-03T14:17:16.407Z,16.40
2019-03-03T14:23:18.642Z,16.20
2019-03-03T14:29:21.299Z,16.20
2019-03-03T14:35:23.631Z,16.30
2019-03-03T14:41:25.853Z,16.20
2019-03-03T14:47:28.025Z,16.30
2019-03-03T14:53:30.222Z,16.20
2019-03-03T14:59:32.461Z,16.10
2019-03-03T15:05:37.144Z,15.80
2019-03-03T15:11:39.447Z,15.70
2019-03-03T15:17:41.635Z,15.50
2019-03-03T15:23:44.099Z,15.40
2019-03-03T15:29:47.101Z,15.40
2019-03-03T15:35:49.570Z,15.30
2019-03-03T15:41:52.252Z,15.20
2019-03-03T15:47:54.597Z,15.00
2019-03-03T15:53:57.004Z,14.90
2019-03-03T15:59:59.314Z,14.80
2019-03-03T16:06:01.660Z,14.70
2019-03-03T16:12:07.260Z,14.60
2019-03-03T16:18:10.282Z,14.50
2019-03-03T16:24:12.585Z,14.30
2019-03-03T16:30:18.003Z,14.10
2019-03-03T16:36:20.612Z,13.90
2019-03-03T16:42:23.001Z,13.70
2019-03-03T16:48:25.841Z,13.40
2019-03-03T16:54:30.412Z,13.20
2019-03-03T17:00:33.269Z,13.00
2019-03-03T17:06:36.187Z,12.80
2019-03-03T17:12:38.674Z,12.60
2019-03-03T17:18:41.266Z,12.40
2019-03-03T17:24:43.984Z,12.20
2019-03-03T17:30:46.264Z,12.00
2019-03-03T17:36:48.605Z,11.80
2019-03-03T17:42:50.823Z,11.60
2019-03-03T17:48:53.084Z,11.40
2019-03-03T17:54:55.536Z,11.30
2019-03-03T18:00:57.786Z,11.20
2019-03-03T18:06:59.979Z,11.10
2019-03-03T18:13:02.178Z,11.00
2019-03-03T18:19:05.187Z,10.90
2019-03-03T18:25:08.656Z,10.80
2019-03-03T18:31:11.316Z,10.70
2019-03-03T18:37:13.783Z,10.70
2019-03-03T18:43:15.973Z,10.60
2019-03-03T18:49:18.274Z,10.50
2019-03-03T18:55:20.538Z,10.40
2019-03-03T19:01:23.840Z,10.20
2019-03-03T19:07:26.168Z,10.20
2019-03-03T19:13:29.320Z,10.10
2019-03-03T19:19:31.679Z,9.90
2019-03-03T19:25:33.944Z,9.80
2019-03-03T19:31:37.572Z,9.70
2019-03-03T19:37:40.495Z,9.70
2019-03-03T19:43:42.805Z,9.60
2019-03-03T19:49:45.397Z,9.60
2019-03-03T19:55:47.771Z,9.50
2019-03-03T20:01:53.135Z,9.40
2019-03-03T20:07:55.647Z,9.30
2019-03-03T20:14:00.263Z,9.20
2019-03-03T20:20:03.010Z,9.10
2019-03-03T20:26:06.195Z,9.10
2019-03-03T20:32:08.519Z,9.10
2019-03-03T20:38:10.702Z,9.20
2019-03-03T20:44:13.149Z,9.10
2019-03-03T20:50:17.588Z,9.00
2019-03-03T20:56:19.776Z,8.80
2019-03-03T21:02:21.993Z,8.60
2019-03-03T21:08:24.233Z,8.40
2019-03-03T21:14:27.070Z,8.30
2019-03-03T21:20:30.741Z,8.10
2019-03-03T21:26:33.027Z,8.00
2019-03-03T21:32:35.280Z,7.80
2019-03-03T21:38:37.687Z,7.80
2019-03-03T21:44:39.988Z,7.80
2019-03-03T21:50:42.186Z,7.60
2019-03-03T21:56:44.471Z,7.60
2019-03-03T22:02:47.740Z,7.40
2019-03-03T22:08:51.079Z,7.30
2019-03-03T22:14:54.357Z,7.20
2019-03-03T22:20:57.623Z,7.10
2019-03-03T22:26:59.957Z,7.00
2019-03-03T22:33:03.336Z,7.00
2019-03-03T22:39:06.792Z,6.80
2019-03-03T22:45:10.562Z,6.70
2019-03-03T22:51:12.700Z,6.50
2019-03-03T22:57:14.934Z,6.50
2019-03-03T23:03:25.102Z,6.40
2019-03-03T23:09:56.292Z,6.30
2019-03-03T23:16:35.412Z,6.30
2019-03-03T23:23:17.585Z,6.10
2019-03-03T23:29:19.761Z,5.90
2019-03-03T23:35:21.907Z,5.80
2019-03-03T23:41:26.168Z,5.70
2019-03-03T23:47:28.403Z,5.70
2019-03-03T23:53:30.578Z,5.60
2019-03-03T23:59:32.756Z,5.50
